Time;durP1;ratioP1;P1;durP2;ratioP2;P2;SDS_P1;SDS_P2;PMS_P1;PMS_P2;Temp;Humidity;BMP_temperature;BMP_pressure;BME280_temperature;BME280_humidity;BME280_pressure;Samples;Min_cycle;Max_cycle;Signal;HPM_P1;HPM_P2
2024/03/03 00:00:13;;;;;;;11.13;5.18;;;11.00;96.70;;;;;;4969940;28;20053;-71
2024/03/03 00:02:43;;;;;;;8.98;4.82;;;11.00;96.70;;;;;;4974268;28;20139;-71
2024/03/03 00:05:16;;;;;;;7.78;4.15;;;11.00;96.70;;;;;;4985208;28;20047;-71
2024/03/03 00:07:45;;;;;;;8.63;3.88;;;11.00;96.70;;;;;;4973182;28;20573;-71
2024/03/03 00:10:14;;;;;;;6.13;3.70;;;10.90;96.70;;;;;;4989164;28;20089;-71
2024/03/03 00:12:46;;;;;;;7.50;3.67;;;10.70;96.70;;;;;;4994158;28;20050;-71
2024/03/03 00:15:14;;;;;;;9.02;4.32;;;10.80;96.70;;;;;;4976236;28;20160;-70
2024/03/03 00:17:43;;;;;;;5.13;3.00;;;10.90;96.70;;;;;;4986875;28;20045;-71
2024/03/03 00:20:15;;;;;;;6.72;3.38;;;10.80;96.70;;;;;;4970323;28;20804;-71
2024/03/03 00:22:45;;;;;;;6.82;3.17;;;10.80;96.70;;;;;;4974052;28;20053;-71
2024/03/03 00:25:16;;;;;;;4.90;3.03;;;10.80;96.70;;;;;;4965830;28;20058;-71
2024/03/03 00:27:47;;;;;;;9.32;2.88;;;10.90;96.70;;;;;;4965901;28;20138;-71
2024/03/03 00:30:16;;;;;;;7.97;3.60;;;10.90;96.70;;;;;;4969036;28;20054;-71
2024/03/03 00:32:46;;;;;;;7.28;2.85;;;10.90;96.70;;;;;;4973878;28;20193;-71
2024/03/03 00:35:17;;;;;;;7.80;3.28;;;10.90;96.70;;;;;;4968716;28;20050;-70
2024/03/03 00:37:45;;;;;;;7.55;3.50;;;10.90;96.70;;;;;;4989863;28;20073;-71
2024/03/03 00:40:16;;;;;;;9.30;4.10;;;10.80;96.70;;;;;;4994336;28;20066;-71
2024/03/03 00:42:46;;;;;;;5.80;4.13;;;10.80;96.70;;;;;;4990479;28;20108;-71
2024/03/03 00:45:14;;;;;;;7.97;3.90;;;10.80;96.70;;;;;;4974561;28;20101;-71
2024/03/03 00:47:46;;;;;;;5.55;3.28;;;10.70;96.70;;;;;;4985369;28;20050;-71
2024/03/03 00:50:19;;;;;;;5.75;3.30;;;10.70;96.70;;;;;;4980664;28;20169;-71
2024/03/03 00:52:54;;;;;;;6.40;3.00;;;10.70;96.70;;;;;;4980897;28;20064;-71
2024/03/03 00:55:23;;;;;;;5.82;3.35;;;10.60;96.70;;;;;;4986324;28;20048;-70
2024/03/03 00:57:54;;;;;;;5.85;2.80;;;10.60;96.70;;;;;;4995212;28;20038;-70
2024/03/03 01:00:23;;;;;;;6.32;2.83;;;10.70;96.70;;;;;;4997383;28;20050;-70
2024/03/03 01:02:51;;;;;;;5.13;2.42;;;10.70;96.70;;;;;;4993406;28;20050;-71
2024/03/03 01:05:24;;;;;;;4.80;2.88;;;10.60;96.70;;;;;;4989717;28;20206;-71
2024/03/03 01:07:54;;;;;;;5.85;3.00;;;10.60;96.70;;;;;;4983467;28;20054;-70
2024/03/03 01:10:24;;;;;;;6.10;2.90;;;10.70;96.70;;;;;;4977197;28;20072;-71
2024/03/03 01:12:54;;;;;;;6.82;2.78;;;10.60;96.70;;;;;;4977461;28;20050;-71
2024/03/03 01:15:22;;;;;;;6.78;3.03;;;10.70;96.70;;;;;;4981288;28;20099;-71
2024/03/03 01:17:50;;;;;;;4.80;2.58;;;10.70;96.70;;;;;;4977991;28;20042;-71
2024/03/03 01:20:19;;;;;;;4.18;2.42;;;10.60;96.70;;;;;;4972525;28;20054;-71
2024/03/03 01:22:50;;;;;;;4.22;2.42;;;10.60;96.70;;;;;;4974894;28;20050;-71
2024/03/03 01:25:21;;;;;;;5.22;2.20;;;10.60;96.70;;;;;;4996950;28;20572;-71
2024/03/03 01:27:52;;;;;;;5.63;1.90;;;10.70;96.70;;;;;;4994698;28;20054;-71
2024/03/03 01:30:20;;;;;;;6.00;1.90;;;10.70;96.70;;;;;;4972322;28;20054;-71
2024/03/03 01:32:50;;;;;;;4.30;2.05;;;10.70;96.70;;;;;;4978713;28;20054;-71
2024/03/03 01:35:21;;;;;;;4.53;2.22;;;10.70;96.70;;;;;;4974475;28;20081;-71
2024/03/03 01:37:51;;;;;;;6.78;2.03;;;10.70;96.70;;;;;;4992705;28;20058;-71
2024/03/03 01:40:21;;;;;;;5.95;2.10;;;10.70;96.70;;;;;;4977997;28;20058;-71
2024/03/03 01:42:56;;;;;;;7.07;1.92;;;10.70;96.70;;;;;;4993023;28;20057;-71
2024/03/03 01:45:25;;;;;;;4.63;2.00;;;10.70;96.70;;;;;;4982618;28;20054;-72
2024/03/03 01:47:56;;;;;;;2.97;1.50;;;10.70;96.70;;;;;;4973468;28;20141;-72
2024/03/03 01:50:26;;;;;;;4.65;1.65;;;10.70;96.70;;;;;;4981331;28;20145;-72
2024/03/03 01:52:57;;;;;;;3.70;1.60;;;10.70;96.70;;;;;;4994268;28;20058;-72
2024/03/03 01:55:25;;;;;;;3.95;1.75;;;10.70;96.70;;;;;;4968349;28;20141;-71
2024/03/03 01:58:01;;;;;;;9.90;2.17;;;10.70;96.70;;;;;;4971586;28;20065;-72
2024/03/03 02:00:33;;;;;;;4.35;1.58;;;10.70;96.70;;;;;;4987792;28;20128;-72
2024/03/03 02:03:05;;;;;;;4.68;1.60;;;10.70;96.70;;;;;;4981938;28;20047;-72
2024/03/03 02:05:37;;;;;;;5.15;1.60;;;10.70;96.70;;;;;;4993403;28;20532;-71
2024/03/03 02:08:07;;;;;;;5.82;1.77;;;10.70;96.70;;;;;;4971139;28;20062;-72
2024/03/03 02:10:38;;;;;;;5.30;1.48;;;10.80;96.70;;;;;;4988153;28;20050;-71
2024/03/03 02:13:07;;;;;;;4.53;1.83;;;10.80;96.70;;;;;;5000702;28;20432;-72
2024/03/03 02:15:38;;;;;;;5.88;1.63;;;10.90;96.70;;;;;;4990264;28;20430;-72
2024/03/03 02:18:07;;;;;;;5.30;1.45;;;10.80;96.70;;;;;;4972457;28;20047;-71
2024/03/03 02:20:37;;;;;;;3.45;1.02;;;10.80;96.70;;;;;;4973587;28;20045;-72
2024/03/03 02:23:09;;;;;;;6.07;1.63;;;10.70;96.70;;;;;;4969272;28;20054;-71
2024/03/03 02:25:40;;;;;;;5.00;1.60;;;10.60;96.70;;;;;;4981832;28;20627;-71
2024/03/03 02:28:09;;;;;;;4.38;1.88;;;10.60;96.70;;;;;;4976826;28;20867;-71
2024/03/03 02:30:38;;;;;;;4.78;1.73;;;10.60;96.70;;;;;;4981331;28;20189;-71
2024/03/03 02:33:07;;;;;;;6.22;1.98;;;10.60;96.70;;;;;;4988795;28;20065;-71
2024/03/03 02:35:35;;;;;;;4.72;2.08;;;10.60;96.70;;;;;;4980799;28;20050;-70
2024/03/03 02:38:08;;;;;;;6.03;2.13;;;10.60;96.70;;;;;;4974082;28;20038;-70
2024/03/03 02:40:36;;;;;;;5.63;2.00;;;10.60;96.70;;;;;;4989414;28;20086;-70
2024/03/03 02:43:08;;;;;;;4.90;1.75;;;10.60;96.70;;;;;;4998435;28;20117;-70
2024/03/03 02:45:38;;;;;;;7.20;2.38;;;10.50;96.70;;;;;;4987992;28;20046;-70
2024/03/03 02:48:08;;;;;;;7.22;2.05;;;10.50;96.70;;;;;;4997902;28;20526;-70
2024/03/03 02:50:39;;;;;;;7.35;2.05;;;10.50;96.70;;;;;;4978042;28;20142;-70
2024/03/03 02:53:10;;;;;;;4.93;1.98;;;10.40;96.70;;;;;;4972249;28;20107;-70
2024/03/03 02:55:43;;;;;;;3.75;1.95;;;10.40;96.70;;;;;;4976395;28;20140;-70
2024/03/03 02:58:12;;;;;;;3.65;1.98;;;10.40;96.70;;;;;;4994382;28;20046;-71
2024/03/03 03:00:43;;;;;;;4.43;1.92;;;10.40;96.70;;;;;;4981183;28;20482;-71
2024/03/03 03:03:12;;;;;;;5.05;2.42;;;10.40;96.70;;;;;;4971522;28;20054;-71
2024/03/03 03:05:41;;;;;;;4.55;1.85;;;10.40;96.70;;;;;;4977735;28;20049;-71
2024/03/03 03:08:12;;;;;;;4.85;2.22;;;10.40;96.70;;;;;;4979011;28;20116;-71
2024/03/03 03:10:42;;;;;;;5.22;1.85;;;10.30;96.70;;;;;;4980727;28;20468;-71
2024/03/03 03:13:12;;;;;;;4.13;1.90;;;10.30;96.70;;;;;;4973839;28;20142;-71
2024/03/03 03:15:40;;;;;;;4.60;1.80;;;10.30;96.70;;;;;;4970740;28;20238;-71
2024/03/03 03:18:10;;;;;;;4.30;2.20;;;10.30;96.70;;;;;;4981749;28;20463;-71
2024/03/03 03:20:41;;;;;;;4.50;1.90;;;10.30;96.70;;;;;;4986420;28;20055;-71
2024/03/03 03:23:12;;;;;;;4.30;1.98;;;10.30;96.70;;;;;;4993164;28;20076;-71
2024/03/03 03:25:43;;;;;;;3.10;1.73;;;10.30;96.70;;;;;;4979234;28;20069;-71
2024/03/03 03:28:12;;;;;;;7.25;2.10;;;10.30;96.70;;;;;;4968727;28;20049;-71
2024/03/03 03:30:40;;;;;;;3.42;2.10;;;10.20;96.70;;;;;;4986883;28;20051;-71
2024/03/03 03:33:10;;;;;;;4.50;1.90;;;10.20;96.70;;;;;;4975405;28;20050;-71
2024/03/03 03:35:42;;;;;;;4.57;2.08;;;10.20;96.70;;;;;;4987336;28;20054;-71
2024/03/03 03:38:12;;;;;;;5.70;1.75;;;10.20;96.70;;;;;;4994257;28;20108;-71
2024/03/03 03:40:41;;;;;;;4.65;2.17;;;10.20;96.70;;;;;;4963154;28;20763;-71
2024/03/03 03:43:09;;;;;;;3.22;1.65;;;10.10;96.70;;;;;;4986731;28;20077;-71
2024/03/03 03:45:39;;;;;;;4.75;1.90;;;10.20;96.70;;;;;;4969295;28;20836;-71
2024/03/03 03:48:08;;;;;;;4.10;2.10;;;10.20;96.70;;;;;;4980302;28;20073;-70
2024/03/03 03:50:37;;;;;;;3.28;1.70;;;10.20;96.70;;;;;;4988195;28;20463;-71
2024/03/03 03:53:07;;;;;;;4.65;1.95;;;10.20;96.70;;;;;;4982445;28;20058;-71
2024/03/03 03:55:39;;;;;;;5.10;1.73;;;10.20;96.70;;;;;;4970004;28;20049;-71
2024/03/03 03:58:07;;;;;;;3.67;1.88;;;10.20;96.70;;;;;;4991488;28;20078;-70
2024/03/03 04:00:36;;;;;;;4.78;2.00;;;10.10;96.70;;;;;;4987707;28;20554;-71
2024/03/03 04:03:06;;;;;;;4.53;1.92;;;10.10;96.70;;;;;;4994557;28;20061;-71
2024/03/03 04:05:34;;;;;;;3.95;2.10;;;10.10;96.70;;;;;;4984554;28;20057;-71
2024/03/03 04:08:04;;;;;;;7.13;2.10;;;10.10;96.70;;;;;;4986082;28;20414;-71
2024/03/03 04:10:33;;;;;;;4.80;2.25;;;10.10;96.70;;;;;;4987523;28;20165;-71
2024/03/03 04:13:03;;;;;;;4.60;2.05;;;10.10;96.70;;;;;;4973920;28;20060;-71
2024/03/03 04:15:32;;;;;;;3.35;1.85;;;10.00;96.70;;;;;;4984077;28;20054;-71
2024/03/03 04:18:01;;;;;;;3.17;2.08;;;10.00;96.70;;;;;;4980127;28;20042;-70
2024/03/03 04:20:30;;;;;;;5.18;2.30;;;10.00;96.70;;;;;;4976732;28;20066;-71
2024/03/03 04:22:58;;;;;;;3.92;1.90;;;10.00;96.70;;;;;;4999097;28;20142;-71
2024/03/03 04:25:26;;;;;;;4.72;2.10;;;10.00;96.70;;;;;;4973776;28;20584;-71
2024/03/03 04:27:54;;;;;;;8.80;3.15;;;9.90;96.70;;;;;;4985564;28;20042;-70
2024/03/03 04:30:25;;;;;;;5.68;2.20;;;9.90;96.70;;;;;;4981985;28;20093;-71
2024/03/03 04:32:55;;;;;;;4.18;2.22;;;9.90;96.70;;;;;;4965735;28;20141;-71
2024/03/03 04:35:25;;;;;;;4.00;2.05;;;9.90;96.70;;;;;;4987459;28;20144;-71
2024/03/03 04:37:53;;;;;;;3.40;2.03;;;10.00;96.70;;;;;;4991729;28;20038;-71
2024/03/03 04:40:22;;;;;;;6.28;2.35;;;9.90;96.70;;;;;;4978023;28;20597;-71
2024/03/03 04:42:51;;;;;;;4.93;2.33;;;9.90;96.70;;;;;;4975039;28;20056;-71
2024/03/03 04:45:20;;;;;;;6.18;2.28;;;9.90;96.70;;;;;;4983069;28;20340;-71
2024/03/03 04:47:53;;;;;;;6.22;2.15;;;9.90;96.70;;;;;;4970296;28;20045;-70
2024/03/03 04:50:22;;;;;;;4.57;2.40;;;10.10;96.70;;;;;;4976579;28;20058;-71
2024/03/03 04:52:50;;;;;;;4.20;2.20;;;10.10;96.70;;;;;;4988193;28;20057;-70
2024/03/03 04:55:20;;;;;;;5.57;2.60;;;10.00;96.70;;;;;;4978406;28;20054;-71
2024/03/03 04:57:49;;;;;;;2.92;2.08;;;9.90;96.70;;;;;;4987663;28;20072;-71
2024/03/03 05:00:17;;;;;;;6.32;2.30;;;9.90;96.70;;;;;;4977727;28;20042;-71
2024/03/03 05:02:45;;;;;;;5.25;2.45;;;9.90;96.70;;;;;;4990656;28;20054;-71
2024/03/03 05:05:15;;;;;;;4.28;2.10;;;10.00;96.70;;;;;;4992490;28;20046;-70
2024/03/03 05:07:45;;;;;;;6.97;2.35;;;10.00;96.70;;;;;;4983393;28;20051;-71
2024/03/03 05:10:16;;;;;;;8.00;2.60;;;10.00;96.70;;;;;;4995939;28;20579;-70
2024/03/03 05:12:44;;;;;;;4.47;1.92;;;10.00;96.70;;;;;;4978305;28;20085;-69
2024/03/03 05:15:12;;;;;;;3.90;2.22;;;10.00;96.70;;;;;;5000451;28;20082;-70
2024/03/03 05:17:41;;;;;;;5.93;2.15;;;10.00;96.70;;;;;;4989154;28;20411;-71
2024/03/03 05:20:11;;;;;;;6.45;2.30;;;9.90;96.70;;;;;;4971039;28;20104;-70
2024/03/03 05:22:42;;;;;;;5.55;2.15;;;9.90;96.70;;;;;;4984088;28;20136;-71
2024/03/03 05:25:12;;;;;;;6.45;2.38;;;9.90;96.70;;;;;;4993624;28;20054;-71
2024/03/03 05:27:42;;;;;;;6.15;2.17;;;9.90;96.70;;;;;;4980028;28;20057;-71
2024/03/03 05:30:11;;;;;;;6.80;2.08;;;9.80;96.70;;;;;;4997552;28;20078;-71
2024/03/03 05:32:39;;;;;;;6.20;1.85;;;9.90;96.70;;;;;;4996570;28;20053;-71
2024/03/03 05:35:08;;;;;;;7.30;2.20;;;9.80;96.70;;;;;;4974367;28;20172;-71
2024/03/03 05:37:38;;;;;;;5.10;2.15;;;9.90;96.70;;;;;;4972327;28;20051;-71
2024/03/03 05:40:09;;;;;;;5.82;2.10;;;9.90;96.70;;;;;;4993615;28;20065;-69
2024/03/03 05:42:38;;;;;;;4.50;1.98;;;10.00;96.70;;;;;;4981508;28;20062;-71
2024/03/03 05:45:06;;;;;;;7.00;2.47;;;10.10;96.70;;;;;;4971744;28;20070;-70
2024/03/03 05:47:35;;;;;;;6.72;2.47;;;10.10;96.70;;;;;;4976753;28;20128;-70
2024/03/03 05:50:06;;;;;;;4.28;2.22;;;10.10;96.70;;;;;;4979826;28;20096;-70
2024/03/03 05:52:34;;;;;;;6.10;2.22;;;10.10;96.70;;;;;;4972597;28;20404;-70
2024/03/03 05:55:06;;;;;;;4.05;2.05;;;10.20;96.70;;;;;;4974687;28;20057;-70
2024/03/03 05:57:37;;;;;;;7.03;2.15;;;10.10;96.70;;;;;;4971844;28;20141;-70
2024/03/03 06:00:08;;;;;;;3.97;1.98;;;10.10;96.70;;;;;;4972049;28;20050;-70
2024/03/03 06:02:40;;;;;;;4.13;1.77;;;10.10;96.70;;;;;;4995503;28;20073;-70
2024/03/03 06:05:09;;;;;;;4.53;1.98;;;10.20;96.70;;;;;;4973810;28;20063;-70
2024/03/03 06:07:38;;;;;;;4.85;2.10;;;10.20;96.70;;;;;;4985478;28;20050;-70
2024/03/03 06:10:16;;;;;;;5.43;2.17;;;10.20;96.70;;;;;;4969741;28;20054;-70
2024/03/03 06:12:48;;;;;;;5.13;2.00;;;10.20;96.70;;;;;;4999382;28;20129;-70
2024/03/03 06:15:17;;;;;;;2.75;1.92;;;10.30;96.70;;;;;;4974214;28;20148;-71
2024/03/03 06:17:45;;;;;;;7.70;2.08;;;10.30;96.70;;;;;;4990991;28;20046;-70
2024/03/03 06:20:15;;;;;;;5.55;1.95;;;10.40;96.70;;;;;;4979208;28;20050;-70
2024/03/03 06:22:45;;;;;;;3.92;2.00;;;10.30;96.70;;;;;;4999168;28;20672;-70
2024/03/03 06:25:15;;;;;;;3.40;1.70;;;10.40;96.70;;;;;;4975978;28;20104;-70
2024/03/03 06:27:48;;;;;;;4.53;1.75;;;10.40;96.70;;;;;;4978414;28;20081;-70
2024/03/03 06:30:18;;;;;;;7.07;1.83;;;10.50;96.70;;;;;;4986118;28;20056;-70
2024/03/03 06:32:48;;;;;;;3.72;1.80;;;10.50;96.70;;;;;;5002821;28;20057;-70
2024/03/03 06:35:18;;;;;;;3.67;1.90;;;10.60;96.70;;;;;;4990625;28;20410;-70
2024/03/03 06:37:53;;;;;;;3.83;1.70;;;10.60;96.70;;;;;;4982874;28;20072;-70
2024/03/03 06:40:22;;;;;;;3.97;1.70;;;10.60;96.70;;;;;;4969504;28;20054;-71
2024/03/03 06:42:53;;;;;;;2.92;1.83;;;10.60;96.70;;;;;;4975795;28;20064;-70
2024/03/03 06:45:21;;;;;;;4.88;1.90;;;10.70;96.70;;;;;;4953184;28;20058;-70
2024/03/03 06:47:51;;;;;;;6.88;2.30;;;10.70;96.70;;;;;;4965947;28;20050;-70
2024/03/03 06:50:21;;;;;;;8.88;1.88;;;10.80;96.70;;;;;;4954974;28;20062;-69
2024/03/03 06:52:50;;;;;;;5.95;2.15;;;10.80;96.70;;;;;;4950372;28;20065;-70
2024/03/03 06:55:19;;;;;;;7.03;1.77;;;10.90;96.70;;;;;;4958538;28;20050;-70
2024/03/03 06:57:49;;;;;;;5.10;1.90;;;11.00;96.70;;;;;;4951464;28;20054;-70
2024/03/03 07:00:20;;;;;;;3.55;1.88;;;11.00;96.70;;;;;;4947926;28;20097;-70
2024/03/03 07:05:36;;;;;;;3.35;1.95;;;11.20;96.70;;;;;;4962745;28;20111;-70
2024/03/03 07:08:06;;;;;;;4.47;1.77;;;11.20;96.70;;;;;;4965320;28;20174;-70
2024/03/03 07:10:38;;;;;;;6.93;1.98;;;11.20;96.70;;;;;;4969888;28;20042;-70
2024/03/03 07:13:07;;;;;;;5.18;1.88;;;11.30;96.70;;;;;;4967368;28;20128;-70
2024/03/03 07:15:38;;;;;;;5.68;1.98;;;11.30;96.70;;;;;;4960837;28;20050;-69
2024/03/03 07:18:07;;;;;;;5.50;1.80;;;11.40;96.70;;;;;;4993645;28;20054;-70
2024/03/03 07:20:38;;;;;;;6.47;1.90;;;11.40;96.70;;;;;;4966688;28;20050;-70
2024/03/03 07:23:09;;;;;;;6.82;2.25;;;11.50;96.70;;;;;;4973117;28;20050;-70
2024/03/03 07:25:37;;;;;;;4.80;1.70;;;11.60;96.70;;;;;;4964334;28;20497;-69
2024/03/03 07:28:07;;;;;;;7.32;1.50;;;11.60;96.70;;;;;;4959314;28;20125;-70
2024/03/03 07:30:37;;;;;;;7.28;1.70;;;11.70;96.70;;;;;;4965296;28;20047;-70
2024/03/03 07:33:07;;;;;;;3.95;1.50;;;11.80;96.70;;;;;;4957215;28;20054;-70
2024/03/03 07:35:35;;;;;;;5.50;1.55;;;11.80;96.70;;;;;;4950544;28;20155;-70
2024/03/03 07:38:06;;;;;;;4.05;1.52;;;11.90;96.70;;;;;;4980432;28;20128;-69
2024/03/03 07:40:37;;;;;;;24.88;15.77;;;12.00;96.70;;;;;;4971303;28;20139;-70
2024/03/03 07:43:05;;;;;;;18.85;11.15;;;12.00;96.70;;;;;;4994993;28;20089;-70
2024/03/03 07:45:39;;;;;;;12.40;6.13;;;12.10;96.70;;;;;;4994630;28;20049;-70
2024/03/03 07:48:08;;;;;;;8.10;5.03;;;12.10;96.70;;;;;;4981932;28;20061;-70
2024/03/03 07:50:40;;;;;;;6.93;3.97;;;12.20;96.70;;;;;;4972002;28;20066;-70
2024/03/03 07:53:10;;;;;;;6.40;2.78;;;12.40;96.70;;;;;;4986839;28;20084;-70
2024/03/03 07:55:39;;;;;;;8.13;2.55;;;12.40;96.70;;;;;;4970392;28;20058;-70
2024/03/03 07:58:08;;;;;;;8.07;3.03;;;12.60;96.70;;;;;;4978647;28;20145;-69
2024/03/03 08:00:40;;;;;;;11.15;3.40;;;12.70;96.70;;;;;;4968904;28;20043;-70
2024/03/03 08:03:11;;;;;;;8.13;3.20;;;12.80;96.70;;;;;;5001399;28;20058;-70
2024/03/03 08:05:40;;;;;;;6.25;4.13;;;12.90;96.70;;;;;;4968946;28;20043;-70
2024/03/03 08:08:09;;;;;;;13.80;7.38;;;13.00;96.70;;;;;;4977854;28;20053;-70
2024/03/03 08:10:41;;;;;;;25.65;14.75;;;13.10;96.70;;;;;;4967397;28;20042;-69
2024/03/03 08:13:10;;;;;;;27.58;16.20;;;13.20;96.70;;;;;;4984807;28;20141;-70
2024/03/03 08:15:43;;;;;;;53.83;36.03;;;13.20;96.70;;;;;;4962126;28;20047;-70
2024/03/03 08:18:12;;;;;;;25.70;16.25;;;13.20;96.70;;;;;;4995257;28;20046;-70
2024/03/03 08:20:41;;;;;;;17.83;9.50;;;13.20;96.70;;;;;;4969703;28;20139;-70
2024/03/03 08:23:09;;;;;;;9.02;3.88;;;13.20;96.70;;;;;;4975370;28;20141;-70
2024/03/03 08:25:39;;;;;;;7.22;3.50;;;13.20;96.70;;;;;;4981830;28;20574;-70
2024/03/03 08:28:09;;;;;;;9.32;5.28;;;13.20;96.70;;;;;;4984471;28;20137;-70
2024/03/03 08:30:39;;;;;;;14.77;7.97;;;13.20;96.70;;;;;;4971863;28;20092;-70
2024/03/03 08:33:09;;;;;;;13.43;8.27;;;13.20;96.70;;;;;;4958290;28;20125;-71
2024/03/03 08:35:39;;;;;;;8.25;4.40;;;13.30;96.70;;;;;;4986996;28;20058;-70
2024/03/03 08:38:09;;;;;;;6.43;2.83;;;13.30;96.70;;;;;;4978961;28;20058;-70
2024/03/03 08:40:37;;;;;;;6.47;2.47;;;13.30;96.70;;;;;;4988502;28;20531;-70
2024/03/03 08:43:08;;;;;;;6.43;2.20;;;13.40;96.70;;;;;;4983644;28;20055;-70
2024/03/03 08:45:39;;;;;;;7.43;1.70;;;13.50;96.70;;;;;;4993319;28;20058;-71
2024/03/03 08:48:10;;;;;;;7.95;2.53;;;13.50;96.70;;;;;;4994651;28;20526;-70
2024/03/03 08:50:40;;;;;;;5.32;2.53;;;13.60;96.70;;;;;;4982628;28;20077;-70
2024/03/03 08:53:09;;;;;;;5.47;2.03;;;13.70;96.70;;;;;;4966238;28;20066;-70
2024/03/03 08:55:41;;;;;;;5.25;1.98;;;13.70;96.70;;;;;;4994262;28;20290;-70
2024/03/03 08:58:11;;;;;;;11.25;6.80;;;13.80;96.70;;;;;;4979737;28;20574;-71
2024/03/03 09:00:41;;;;;;;16.33;8.75;;;13.90;96.70;;;;;;4976049;28;20053;-73
2024/03/03 09:03:13;;;;;;;11.88;5.50;;;13.90;96.70;;;;;;5005422;28;20453;-73
2024/03/03 09:05:42;;;;;;;7.63;3.28;;;14.00;96.70;;;;;;4980833;28;20053;-74
2024/03/03 09:08:11;;;;;;;4.35;2.20;;;14.10;96.70;;;;;;4981419;28;20049;-72
2024/03/03 09:10:40;;;;;;;6.88;1.70;;;14.10;96.70;;;;;;4969750;28;20051;-71
2024/03/03 09:13:09;;;;;;;3.15;1.50;;;14.10;96.70;;;;;;4971044;28;20392;-73
2024/03/03 09:15:37;;;;;;;4.32;1.50;;;14.10;96.70;;;;;;4982960;28;20058;-72
2024/03/03 09:18:06;;;;;;;5.93;1.52;;;14.10;96.70;;;;;;4969981;28;20113;-73
2024/03/03 09:20:37;;;;;;;4.25;1.52;;;14.10;96.70;;;;;;4980339;28;20046;-73
2024/03/03 09:23:06;;;;;;;5.72;1.42;;;14.10;96.70;;;;;;4971322;28;20054;-73
2024/03/03 09:25:35;;;;;;;6.53;1.33;;;14.10;96.70;;;;;;4970427;28;20049;-74
2024/03/03 09:28:04;;;;;;;7.30;1.67;;;14.00;96.70;;;;;;4964478;28;20063;-73
2024/03/03 09:30:32;;;;;;;4.43;1.45;;;14.10;96.70;;;;;;4984999;28;20041;-73
2024/03/03 09:33:01;;;;;;;5.80;1.77;;;14.10;96.70;;;;;;4973446;28;20144;-73
2024/03/03 09:35:30;;;;;;;5.88;1.60;;;14.20;96.70;;;;;;4975411;28;20483;-73
2024/03/03 09:38:00;;;;;;;5.93;1.60;;;14.20;96.70;;;;;;4969796;28;20050;-72
2024/03/03 09:40:34;;;;;;;5.78;1.60;;;14.20;96.70;;;;;;4977289;28;20133;-72
2024/03/03 09:43:03;;;;;;;5.13;1.30;;;14.20;96.70;;;;;;4972066;28;20475;-72
2024/03/03 09:45:31;;;;;;;3.53;1.00;;;14.30;96.70;;;;;;4988913;28;20062;-74
2024/03/03 09:48:02;;;;;;;3.65;1.35;;;14.20;96.70;;;;;;4973112;28;20851;-72
2024/03/03 09:50:31;;;;;;;4.72;1.58;;;14.30;96.70;;;;;;4983882;28;20133;-72
2024/03/03 09:53:02;;;;;;;5.72;1.42;;;14.30;96.70;;;;;;4971260;28;20573;-72
2024/03/03 09:55:31;;;;;;;4.00;1.10;;;14.40;96.70;;;;;;4978163;28;20050;-71
2024/03/03 09:58:01;;;;;;;6.35;1.60;;;14.50;96.70;;;;;;4968973;28;20054;-72
2024/03/03 10:00:32;;;;;;;5.53;1.73;;;14.50;96.70;;;;;;4977331;28;20043;-73
2024/03/03 10:03:02;;;;;;;4.72;1.48;;;14.60;96.70;;;;;;4978483;28;20062;-72
2024/03/03 10:05:34;;;;;;;4.30;1.42;;;14.60;96.70;;;;;;4974709;28;21315;-72
2024/03/03 10:08:05;;;;;;;7.07;1.60;;;14.60;96.70;;;;;;4978252;28;20054;-71
2024/03/03 10:10:35;;;;;;;4.47;1.70;;;14.60;96.70;;;;;;4973771;28;20052;-73
2024/03/03 10:13:05;;;;;;;4.72;1.48;;;14.60;96.70;;;;;;4971567;28;20054;-74
2024/03/03 10:15:35;;;;;;;5.45;1.88;;;14.70;96.70;;;;;;4967646;28;20049;-73
2024/03/03 10:18:08;;;;;;;6.97;1.60;;;14.70;96.70;;;;;;4969472;28;20145;-73
2024/03/03 10:20:37;;;;;;;3.78;1.40;;;14.70;96.70;;;;;;4985051;28;20121;-73
2024/03/03 10:23:20;;;;;;;4.63;2.13;;;14.80;96.70;;;;;;4987591;28;20148;-72
2024/03/03 10:25:57;;;;;;;4.95;1.73;;;14.90;96.70;;;;;;4970569;28;20042;-70
2024/03/03 10:28:27;;;;;;;4.63;1.40;;;15.00;96.70;;;;;;4961334;28;20057;-70
2024/03/03 10:31:11;;;;;;;5.13;2.10;;;15.10;96.70;;;;;;4969344;28;20130;-72
2024/03/03 10:33:53;;;;;;;5.85;2.90;;;15.20;96.70;;;;;;4983441;28;20519;-73
2024/03/03 10:36:23;;;;;;;5.25;2.10;;;15.30;96.70;;;;;;4987577;28;20054;-72
2024/03/03 10:38:53;;;;;;;5.75;1.70;;;15.30;96.70;;;;;;4972718;28;20162;-71
2024/03/03 10:41:23;;;;;;;5.38;1.80;;;15.20;96.70;;;;;;4975011;28;20050;-71
2024/03/03 10:43:53;;;;;;;5.32;1.50;;;15.00;96.70;;;;;;4970916;28;20062;-71
2024/03/03 10:46:23;;;;;;;4.38;1.40;;;14.90;96.70;;;;;;5007988;28;20498;-73
2024/03/03 10:48:54;;;;;;;5.38;1.50;;;14.90;96.70;;;;;;4986561;28;20058;-72
2024/03/03 10:51:25;;;;;;;3.97;1.25;;;14.80;96.70;;;;;;4988930;28;20070;-71
2024/03/03 10:54:00;;;;;;;2.83;1.63;;;14.80;96.70;;;;;;4995006;28;20045;-71
2024/03/03 10:56:30;;;;;;;5.53;1.77;;;14.80;96.70;;;;;;4982255;28;20053;-72
2024/03/03 10:59:01;;;;;;;3.38;1.48;;;14.80;96.70;;;;;;4981562;28;20132;-71
2024/03/03 11:01:32;;;;;;;6.85;2.20;;;14.90;96.70;;;;;;4966565;28;20104;-73
2024/03/03 11:04:05;;;;;;;5.20;2.53;;;15.00;96.70;;;;;;4974283;28;20054;-71
2024/03/03 11:06:37;;;;;;;6.95;2.40;;;15.20;96.70;;;;;;4976135;28;20065;-71
2024/03/03 11:09:11;;;;;;;6.85;3.50;;;15.30;96.70;;;;;;4999074;28;20771;-71
2024/03/03 11:11:45;;;;;;;7.38;2.83;;;15.30;96.70;;;;;;4973488;28;20046;-71
2024/03/03 11:14:16;;;;;;;10.20;3.67;;;15.30;96.70;;;;;;4993385;28;20410;-72
2024/03/03 11:16:51;;;;;;;8.55;3.42;;;15.30;96.70;;;;;;4999507;28;20053;-71
2024/03/03 11:19:27;;;;;;;10.48;5.43;;;15.20;96.70;;;;;;4992678;28;20057;-71
2024/03/03 11:21:58;;;;;;;15.60;8.13;;;15.20;96.70;;;;;;4976257;28;20136;-72
2024/03/03 11:24:30;;;;;;;7.68;3.72;;;15.10;96.70;;;;;;4994313;28;20235;-71
2024/03/03 11:27:09;;;;;;;6.90;2.25;;;15.10;96.70;;;;;;4999655;28;20061;-71
2024/03/03 11:29:39;;;;;;;7.03;2.47;;;15.00;96.70;;;;;;4983339;28;20057;-71
2024/03/03 11:32:12;;;;;;;4.65;1.60;;;15.00;96.70;;;;;;4982464;28;20604;-71
2024/03/03 11:34:44;;;;;;;7.22;1.70;;;15.10;96.70;;;;;;4996590;28;20068;-71
2024/03/03 11:37:19;;;;;;;4.05;1.10;;;15.20;96.70;;;;;;4978395;28;20559;-71
2024/03/03 11:39:56;;;;;;;3.90;1.30;;;15.30;96.70;;;;;;4995117;28;20060;-71
2024/03/03 11:42:40;;;;;;;7.25;1.65;;;15.50;96.70;;;;;;4980548;28;20057;-71
2024/03/03 11:45:09;;;;;;;3.17;1.13;;;15.50;96.70;;;;;;4998270;28;20116;-71
2024/03/03 11:47:47;;;;;;;3.45;1.05;;;15.70;96.70;;;;;;4998150;28;20469;-71
2024/03/03 11:50:18;;;;;;;3.75;1.13;;;15.70;96.70;;;;;;4974447;28;20049;-71
2024/03/03 11:52:48;;;;;;;4.78;1.23;;;15.80;96.70;;;;;;4985899;28;20107;-71
2024/03/03 11:55:23;;;;;;;6.35;1.80;;;15.80;96.70;;;;;;4986505;28;20046;-71
2024/03/03 11:57:56;;;;;;;5.53;1.60;;;15.80;96.70;;;;;;4992576;28;20087;-71
2024/03/03 12:00:27;;;;;;;3.90;1.33;;;15.70;96.70;;;;;;4997173;28;20060;-71
2024/03/03 12:02:57;;;;;;;3.80;1.80;;;15.70;96.70;;;;;;4982630;28;20103;-71
2024/03/03 12:05:28;;;;;;;5.45;1.30;;;15.60;96.70;;;;;;4979479;28;20069;-71
2024/03/03 12:07:57;;;;;;;8.15;1.90;;;15.50;96.70;;;;;;4970914;28;20046;-71
2024/03/03 12:10:30;;;;;;;6.60;1.45;;;15.50;96.70;;;;;;4989649;28;20445;-71
2024/03/03 12:13:02;;;;;;;6.10;1.65;;;15.50;96.70;;;;;;4982960;28;20061;-71
2024/03/03 12:15:31;;;;;;;4.93;1.60;;;15.50;96.70;;;;;;4978776;28;20112;-71
2024/03/03 12:18:01;;;;;;;4.43;1.40;;;15.50;96.70;;;;;;4982993;28;20507;-71
2024/03/03 12:20:31;;;;;;;6.95;1.60;;;15.50;96.70;;;;;;4982671;28;20181;-71
2024/03/03 12:23:02;;;;;;;4.53;1.45;;;15.50;96.70;;;;;;4971400;28;20080;-71
2024/03/03 12:25:35;;;;;;;6.30;1.92;;;15.50;96.70;;;;;;4997269;28;20083;-71
2024/03/03 12:28:07;;;;;;;8.25;1.65;;;15.50;96.70;;;;;;4998973;28;20060;-70
2024/03/03 12:30:38;;;;;;;4.03;1.27;;;15.40;96.70;;;;;;5000197;28;20699;-71
2024/03/03 12:33:08;;;;;;;6.82;1.38;;;15.30;96.70;;;;;;5006396;28;20104;-71
2024/03/03 12:35:38;;;;;;;5.38;1.05;;;15.30;96.70;;;;;;4988580;28;20046;-71
2024/03/03 12:38:08;;;;;;;3.53;1.02;;;15.40;96.70;;;;;;5000638;28;20049;-71
2024/03/03 12:40:39;;;;;;;6.38;2.10;;;15.50;96.70;;;;;;4990572;28;20053;-71
2024/03/03 12:43:13;;;;;;;4.35;1.27;;;15.50;96.70;;;;;;4973993;28;20423;-71
2024/03/03 12:45:45;;;;;;;4.32;1.15;;;15.50;96.70;;;;;;4980187;28;20218;-71
2024/03/03 12:48:14;;;;;;;5.72;1.95;;;15.50;96.70;;;;;;4992216;28;20089;-71
2024/03/03 12:50:51;;;;;;;6.20;2.00;;;15.50;96.70;;;;;;4982580;28;20040;-71
2024/03/03 12:53:29;;;;;;;6.88;2.40;;;15.40;96.70;;;;;;5003986;28;20467;-71
2024/03/03 12:56:26;;;;;;;7.38;2.55;;;15.30;96.70;;;;;;4984562;28;20054;-71
2024/03/03 12:58:55;;;;;;;5.47;1.80;;;15.30;96.70;;;;;;5002518;28;20596;-71
2024/03/03 13:01:23;;;;;;;4.90;1.67;;;15.20;96.70;;;;;;4986015;28;20042;-71
2024/03/03 13:03:56;;;;;;;6.30;1.92;;;15.20;96.70;;;;;;4996196;28;20060;-71